METAR Data
IDs: Format: Raw Decoded Include TAF

Data at: 1656 UTC 03 Jul 2020

METAR for:KMGY (Dayton/Wright Brothe, OH, US)
Text:KMGY 031653Z AUTO VRB05KT 10SM BKN070 32/16 A3004 RMK AO2 SLP161 T03170161
Temperature: 31.7°C ( 89°F)
Dewpoint: 16.1°C ( 61°F) [RH = 39%]
Pressure (altimeter):30.04 inches Hg (1017.4 mb) [Sea level pressure: 1016.1 mb]
Winds:variable direction winds at 6 MPH (5 knots; 2.6 m/s)
Visibility:10 or more sm (16+ km)
Ceiling:7000 feet AGL
Clouds: broken clouds at 7000 feet AGL
QC Flag:automated observation with no human augmentation